Columbus, Ohio
Traffic Map
Current Weather Conditions
Columbus, Ohio
Broken Clouds
Broken Clouds
65°
Feels Like: 65°
Wind Chill: 65° Ceiling: 9500
Heat Index: 65° Visibility: 10mi
Dew Point: 60° Wind: 5mph
Humidity: 84% Direction: 170° (S)
Pressure: 30.05in Gusts: 0mph
Raw Report DataKCMH 310551Z 17004KT 10SM BKN095 BKN110 18/16 A3005 RMK AO2 RAE24 SLP169 P0000 60000 T01830156 10228 20183 58001
Traffic Incident Summary
Active as of:
Severity:
Category:
InformationThere was an issue retrieving the traffic information for this location. Please try a different location or try again shortly.
Advertisements
Track Severe Weather on mobile